sensor_id;sensor_type;location;lat;lon;timestamp;temperature;humidity
23188;DHT22;11762;59.878;17.686;2023-11-19T09:58:48;-3.80;99.90
23188;DHT22;11762;59.878;17.686;2023-11-19T10:01:15;-3.80;99.90
23188;DHT22;11762;59.878;17.686;2023-11-19T10:03:42;-3.80;99.90
23188;DHT22;11762;59.878;17.686;2023-11-19T10:06:10;-3.70;99.90
23188;DHT22;11762;59.878;17.686;2023-11-19T10:08:38;-3.70;99.90
23188;DHT22;11762;59.878;17.686;2023-11-19T10:11:06;-3.60;99.90
23188;DHT22;11762;59.878;17.686;2023-11-19T10:13:35;-3.70;99.90
23188;DHT22;11762;59.878;17.686;2023-11-19T10:16:07;-3.70;99.90
23188;DHT22;11762;59.878;17.686;2023-11-19T10:18:35;-3.70;99.90
23188;DHT22;11762;59.878;17.686;2023-11-19T10:21:04;-3.70;99.90
23188;DHT22;11762;59.878;17.686;2023-11-19T10:23:48;-3.60;99.90
23188;DHT22;11762;59.878;17.686;2023-11-19T10:26:16;-3.60;99.90
23188;DHT22;11762;59.878;17.686;2023-11-19T10:28:43;-3.60;99.90
23188;DHT22;11762;59.878;17.686;2023-11-19T10:31:13;-3.90;99.90
23188;DHT22;11762;59.878;17.686;2023-11-19T10:33:40;-3.90;99.90
23188;DHT22;11762;59.878;17.686;2023-11-19T10:36:08;-4.00;99.90
23188;DHT22;11762;59.878;17.686;2023-11-19T10:38:35;-4.30;99.90
23188;DHT22;11762;59.878;17.686;2023-11-19T10:41:03;-4.50;99.90
23188;DHT22;11762;59.878;17.686;2023-11-19T10:43:31;-4.80;99.90
23188;DHT22;11762;59.878;17.686;2023-11-19T10:46:09;-4.80;99.90
23188;DHT22;11762;59.878;17.686;2023-11-19T10:48:39;-4.90;99.90
23188;DHT22;11762;59.878;17.686;2023-11-19T10:51:07;-4.90;99.90
23188;DHT22;11762;59.878;17.686;2023-11-19T10:53:36;-4.90;99.90
23188;DHT22;11762;59.878;17.686;2023-11-19T10:56:06;-4.90;99.90
23188;DHT22;11762;59.878;17.686;2023-11-19T10:58:37;-5.00;99.90
23188;DHT22;11762;59.878;17.686;2023-11-19T11:01:11;-5.10;99.90
23188;DHT22;11762;59.878;17.686;2023-11-19T11:03:41;-5.10;99.90
23188;DHT22;11762;59.878;17.686;2023-11-19T11:06:10;-5.10;99.90
23188;DHT22;11762;59.878;17.686;2023-11-19T11:08:38;-4.80;99.90
23188;DHT22;11762;59.878;17.686;2023-11-19T11:11:07;-4.70;99.90
23188;DHT22;11762;59.878;17.686;2023-11-19T11:13:37;-4.60;99.90
23188;DHT22;11762;59.878;17.686;2023-11-19T11:16:07;-4.70;99.90
23188;DHT22;11762;59.878;17.686;2023-11-19T11:18:35;-4.70;99.90
23188;DHT22;11762;59.878;17.686;2023-11-19T11:21:07;-4.70;99.90
23188;DHT22;11762;59.878;17.686;2023-11-19T11:23:55;-4.70;99.90
23188;DHT22;11762;59.878;17.686;2023-11-19T11:26:41;-4.60;99.90
23188;DHT22;11762;59.878;17.686;2023-11-19T11:29:19;-4.60;99.90
23188;DHT22;11762;59.878;17.686;2023-11-19T11:31:54;-4.50;99.90
23188;DHT22;11762;59.878;17.686;2023-11-19T11:34:40;-4.60;99.90
23188;DHT22;11762;59.878;17.686;2023-11-19T11:37:16;-4.70;99.90
23188;DHT22;11762;59.878;17.686;2023-11-19T11:39:46;-5.00;99.90
23188;DHT22;11762;59.878;17.686;2023-11-19T11:42:31;-5.10;99.90
23188;DHT22;11762;59.878;17.686;2023-11-19T11:44:59;-5.20;99.90
23188;DHT22;11762;59.878;17.686;2023-11-19T11:48:10;-5.30;99.90
23188;DHT22;11762;59.878;17.686;2023-11-19T11:50:56;-5.30;99.90
23188;DHT22;11762;59.878;17.686;2023-11-19T11:53:25;-5.10;99.90
23188;DHT22;11762;59.878;17.686;2023-11-19T11:55:57;-5.10;99.90
23188;DHT22;11762;59.878;17.686;2023-11-19T11:58:30;-5.20;99.90
23188;DHT22;11762;59.878;17.686;2023-11-19T12:00:59;-5.00;99.90
23188;DHT22;11762;59.878;17.686;2023-11-19T12:03:28;-5.00;99.90
23188;DHT22;11762;59.878;17.686;2023-11-19T12:05:56;-5.00;99.90
23188;DHT22;11762;59.878;17.686;2023-11-19T12:08:27;-4.90;99.90
23188;DHT22;11762;59.878;17.686;2023-11-19T12:10:57;-4.80;99.90
23188;DHT22;11762;59.878;17.686;2023-11-19T12:13:53;-4.80;99.90
23188;DHT22;11762;59.878;17.686;2023-11-19T12:16:21;-4.90;99.90
23188;DHT22;11762;59.878;17.686;2023-11-19T12:18:49;-4.90;99.90
23188;DHT22;11762;59.878;17.686;2023-11-19T12:21:29;-4.80;99.90
23188;DHT22;11762;59.878;17.686;2023-11-19T12:23:59;-4.70;99.90
23188;DHT22;11762;59.878;17.686;2023-11-19T12:26:37;-4.70;99.90
23188;DHT22;11762;59.878;17.686;2023-11-19T12:29:05;-4.60;99.90
23188;DHT22;11762;59.878;17.686;2023-11-19T12:31:33;-4.80;99.90
23188;DHT22;11762;59.878;17.686;2023-11-19T12:34:08;-5.10;99.90
23188;DHT22;11762;59.878;17.686;2023-11-19T12:36:40;-5.10;99.90
23188;DHT22;11762;59.878;17.686;2023-11-19T12:39:09;-5.20;99.90
23188;DHT22;11762;59.878;17.686;2023-11-19T12:41:52;-5.30;99.90
23188;DHT22;11762;59.878;17.686;2023-11-19T12:44:20;-5.40;99.90
23188;DHT22;11762;59.878;17.686;2023-11-19T12:46:58;-5.40;99.90
23188;DHT22;11762;59.878;17.686;2023-11-19T12:49:26;-5.60;99.90
23188;DHT22;11762;59.878;17.686;2023-11-19T12:51:53;-5.60;99.90
23188;DHT22;11762;59.878;17.686;2023-11-19T12:54:32;-5.50;99.90
23188;DHT22;11762;59.878;17.686;2023-11-19T12:56:59;-5.70;99.90
23188;DHT22;11762;59.878;17.686;2023-11-19T12:59:26;-5.70;99.90
23188;DHT22;11762;59.878;17.686;2023-11-19T13:01:54;-5.60;99.90
23188;DHT22;11762;59.878;17.686;2023-11-19T13:04:21;-5.60;99.90
23188;DHT22;11762;59.878;17.686;2023-11-19T13:06:50;-5.60;99.90
23188;DHT22;11762;59.878;17.686;2023-11-19T13:09:25;-5.70;99.90
23188;DHT22;11762;59.878;17.686;2023-11-19T13:11:52;-5.70;99.90
23188;DHT22;11762;59.878;17.686;2023-11-19T13:14:20;-5.70;99.90
23188;DHT22;11762;59.878;17.686;2023-11-19T13:16:47;-5.60;99.90
23188;DHT22;11762;59.878;17.686;2023-11-19T13:19:14;-5.60;99.90
23188;DHT22;11762;59.878;17.686;2023-11-19T13:21:42;-5.60;99.90
23188;DHT22;11762;59.878;17.686;2023-11-19T13:24:11;-5.60;99.90
23188;DHT22;11762;59.878;17.686;2023-11-19T13:26:40;-5.70;99.90
23188;DHT22;11762;59.878;17.686;2023-11-19T13:29:07;-5.60;99.90
23188;DHT22;11762;59.878;17.686;2023-11-19T13:31:36;-5.60;99.90
23188;DHT22;11762;59.878;17.686;2023-11-19T13:34:03;-5.60;99.90
23188;DHT22;11762;59.878;17.686;2023-11-19T13:36:32;-5.70;99.90
23188;DHT22;11762;59.878;17.686;2023-11-19T13:38:59;-5.60;99.90
23188;DHT22;11762;59.878;17.686;2023-11-19T13:41:26;-5.60;99.90
23188;DHT22;11762;59.878;17.686;2023-11-19T13:43:55;-5.60;99.90
23188;DHT22;11762;59.878;17.686;2023-11-19T13:46:22;-5.60;99.90
23188;DHT22;11762;59.878;17.686;2023-11-19T13:48:49;-5.50;99.90
23188;DHT22;11762;59.878;17.686;2023-11-19T13:51:16;-5.50;99.90
23188;DHT22;11762;59.878;17.686;2023-11-19T13:53:43;-5.50;99.90
23188;DHT22;11762;59.878;17.686;2023-11-19T13:56:10;-5.40;99.90
23188;DHT22;11762;59.878;17.686;2023-11-19T13:58:37;-5.30;99.90
23188;DHT22;11762;59.878;17.686;2023-11-19T14:01:07;-5.40;99.90
23188;DHT22;11762;59.878;17.686;2023-11-19T14:03:34;-5.40;99.90
23188;DHT22;11762;59.878;17.686;2023-11-19T14:06:01;-5.30;99.90
23188;DHT22;11762;59.878;17.686;2023-11-19T14:08:28;-5.30;99.90
23188;DHT22;11762;59.878;17.686;2023-11-19T14:10:55;-5.30;99.90
23188;DHT22;11762;59.878;17.686;2023-11-19T14:13:23;-5.40;99.90
23188;DHT22;11762;59.878;17.686;2023-11-19T14:15:50;-5.40;99.90
23188;DHT22;11762;59.878;17.686;2023-11-19T14:18:18;-5.40;99.90
23188;DHT22;11762;59.878;17.686;2023-11-19T14:20:45;-5.40;99.90
23188;DHT22;11762;59.878;17.686;2023-11-19T14:23:12;-5.40;99.90
23188;DHT22;11762;59.878;17.686;2023-11-19T14:25:39;-5.50;99.90
23188;DHT22;11762;59.878;17.686;2023-11-19T14:28:06;-5.50;99.90
23188;DHT22;11762;59.878;17.686;2023-11-19T14:30:34;-5.40;99.90
23188;DHT22;11762;59.878;17.686;2023-11-19T14:33:01;-5.30;99.90
23188;DHT22;11762;59.878;17.686;2023-11-19T14:35:30;-5.30;99.90
23188;DHT22;11762;59.878;17.686;2023-11-19T14:37:58;-5.30;99.90
23188;DHT22;11762;59.878;17.686;2023-11-19T14:40:25;-5.40;99.90
23188;DHT22;11762;59.878;17.686;2023-11-19T14:42:52;-5.30;99.90
23188;DHT22;11762;59.878;17.686;2023-11-19T14:45:19;-5.30;99.90
23188;DHT22;11762;59.878;17.686;2023-11-19T14:47:47;-5.40;99.90
23188;DHT22;11762;59.878;17.686;2023-11-19T14:50:14;-5.30;99.90
23188;DHT22;11762;59.878;17.686;2023-11-19T14:52:42;-5.30;99.90
23188;DHT22;11762;59.878;17.686;2023-11-19T14:55:09;-5.30;99.90
23188;DHT22;11762;59.878;17.686;2023-11-19T14:57:37;-5.30;99.90
23188;DHT22;11762;59.878;17.686;2023-11-19T15:00:06;-5.40;99.90
23188;DHT22;11762;59.878;17.686;2023-11-19T15:02:39;-5.30;99.90
23188;DHT22;11762;59.878;17.686;2023-11-19T15:05:08;-5.30;99.90
23188;DHT22;11762;59.878;17.686;2023-11-19T15:07:36;-5.30;99.90
23188;DHT22;11762;59.878;17.686;2023-11-19T15:10:05;-5.40;99.90
23188;DHT22;11762;59.878;17.686;2023-11-19T15:12:37;-5.30;99.90
23188;DHT22;11762;59.878;17.686;2023-11-19T15:15:07;-5.30;99.90
23188;DHT22;11762;59.878;17.686;2023-11-19T15:17:35;-5.20;99.90
23188;DHT22;11762;59.878;17.686;2023-11-19T15:20:03;-5.20;99.90
23188;DHT22;11762;59.878;17.686;2023-11-19T15:22:30;-5.20;99.90
23188;DHT22;11762;59.878;17.686;2023-11-19T15:24:57;-5.20;99.90
23188;DHT22;11762;59.878;17.686;2023-11-19T15:27:26;-5.20;99.90
23188;DHT22;11762;59.878;17.686;2023-11-19T15:29:53;-5.20;99.90
23188;DHT22;11762;59.878;17.686;2023-11-19T15:32:20;-5.20;99.90
23188;DHT22;11762;59.878;17.686;2023-11-19T15:34:47;-5.20;99.90
23188;DHT22;11762;59.878;17.686;2023-11-19T15:37:14;-5.30;99.90
23188;DHT22;11762;59.878;17.686;2023-11-19T15:39:41;-5.30;99.90
23188;DHT22;11762;59.878;17.686;2023-11-19T15:42:08;-5.20;99.90
23188;DHT22;11762;59.878;17.686;2023-11-19T15:44:38;-5.20;99.90
23188;DHT22;11762;59.878;17.686;2023-11-19T15:47:05;-5.20;99.90
23188;DHT22;11762;59.878;17.686;2023-11-19T15:49:33;-5.20;99.90
23188;DHT22;11762;59.878;17.686;2023-11-19T15:52:00;-5.20;99.90
23188;DHT22;11762;59.878;17.686;2023-11-19T15:54:27;-5.20;99.90
23188;DHT22;11762;59.878;17.686;2023-11-19T15:56:54;-5.20;99.90
23188;DHT22;11762;59.878;17.686;2023-11-19T15:59:21;-5.20;99.90
23188;DHT22;11762;59.878;17.686;2023-11-19T16:01:49;-5.20;99.90
23188;DHT22;11762;59.878;17.686;2023-11-19T16:04:16;-5.20;99.90
23188;DHT22;11762;59.878;17.686;2023-11-19T16:06:43;-5.20;99.90
23188;DHT22;11762;59.878;17.686;2023-11-19T16:09:10;-5.20;99.90
23188;DHT22;11762;59.878;17.686;2023-11-19T16:11:41;-5.10;99.90
23188;DHT22;11762;59.878;17.686;2023-11-19T16:14:10;-5.10;99.90
23188;DHT22;11762;59.878;17.686;2023-11-19T16:16:37;-5.10;99.90
23188;DHT22;11762;59.878;17.686;2023-11-19T16:19:06;-5.10;99.90
23188;DHT22;11762;59.878;17.686;2023-11-19T16:21:33;-5.10;99.90
23188;DHT22;11762;59.878;17.686;2023-11-19T16:24:02;-5.10;99.90
23188;DHT22;11762;59.878;17.686;2023-11-19T16:26:30;-5.00;99.90
23188;DHT22;11762;59.878;17.686;2023-11-19T16:28:58;-5.10;99.90
23188;DHT22;11762;59.878;17.686;2023-11-19T16:31:25;-5.10;99.90
23188;DHT22;11762;59.878;17.686;2023-11-19T16:33:52;-5.10;99.90
23188;DHT22;11762;59.878;17.686;2023-11-19T16:36:20;-5.10;99.90
23188;DHT22;11762;59.878;17.686;2023-11-19T16:38:48;-5.10;99.90
23188;DHT22;11762;59.878;17.686;2023-11-19T16:41:18;-5.10;99.90
23188;DHT22;11762;59.878;17.686;2023-11-19T16:43:46;-5.10;99.90
23188;DHT22;11762;59.878;17.686;2023-11-19T16:46:14;-5.10;99.90
23188;DHT22;11762;59.878;17.686;2023-11-19T16:48:41;-5.10;99.90
23188;DHT22;11762;59.878;17.686;2023-11-19T16:51:10;-5.00;99.90
23188;DHT22;11762;59.878;17.686;2023-11-19T16:53:43;-5.00;99.90
23188;DHT22;11762;59.878;17.686;2023-11-19T16:56:11;-5.00;99.90
23188;DHT22;11762;59.878;17.686;2023-11-19T16:58:38;-5.00;99.90
23188;DHT22;11762;59.878;17.686;2023-11-19T17:01:08;-4.90;99.90
23188;DHT22;11762;59.878;17.686;2023-11-19T17:03:36;-4.90;99.90
23188;DHT22;11762;59.878;17.686;2023-11-19T17:06:03;-4.90;99.90
23188;DHT22;11762;59.878;17.686;2023-11-19T17:08:30;-4.90;99.90
23188;DHT22;11762;59.878;17.686;2023-11-19T17:11:00;-4.90;99.90
23188;DHT22;11762;59.878;17.686;2023-11-19T17:13:27;-4.90;99.90
23188;DHT22;11762;59.878;17.686;2023-11-19T17:15:54;-4.90;99.90
23188;DHT22;11762;59.878;17.686;2023-11-19T17:18:22;-4.90;99.90
23188;DHT22;11762;59.878;17.686;2023-11-19T17:20:50;-4.90;99.90
23188;DHT22;11762;59.878;17.686;2023-11-19T17:23:18;-4.90;99.90
23188;DHT22;11762;59.878;17.686;2023-11-19T17:25:45;-4.90;99.90
23188;DHT22;11762;59.878;17.686;2023-11-19T17:28:14;-4.90;99.90
23188;DHT22;11762;59.878;17.686;2023-11-19T17:30:41;-4.80;99.90
23188;DHT22;11762;59.878;17.686;2023-11-19T17:33:08;-4.90;99.90
23188;DHT22;11762;59.878;17.686;2023-11-19T17:35:36;-4.80;99.90
23188;DHT22;11762;59.878;17.686;2023-11-19T17:38:03;-4.80;99.90
23188;DHT22;11762;59.878;17.686;2023-11-19T17:40:30;-4.80;99.90
23188;DHT22;11762;59.878;17.686;2023-11-19T17:42:58;-4.80;99.90
23188;DHT22;11762;59.878;17.686;2023-11-19T17:45:26;-4.70;99.90
23188;DHT22;11762;59.878;17.686;2023-11-19T17:47:55;-4.70;99.90
23188;DHT22;11762;59.878;17.686;2023-11-19T17:50:22;-4.70;99.90
23188;DHT22;11762;59.878;17.686;2023-11-19T17:52:49;-4.70;99.90
23188;DHT22;11762;59.878;17.686;2023-11-19T17:55:16;-4.70;99.90
23188;DHT22;11762;59.878;17.686;2023-11-19T17:57:43;-4.70;99.90
23188;DHT22;11762;59.878;17.686;2023-11-19T18:00:11;-4.70;99.90
23188;DHT22;11762;59.878;17.686;2023-11-19T18:02:42;-4.70;99.90
23188;DHT22;11762;59.878;17.686;2023-11-19T18:05:10;-4.70;99.90
23188;DHT22;11762;59.878;17.686;2023-11-19T18:07:38;-4.60;99.90
23188;DHT22;11762;59.878;17.686;2023-11-19T18:10:07;-4.70;99.90
23188;DHT22;11762;59.878;17.686;2023-11-19T18:12:34;-4.70;99.90
23188;DHT22;11762;59.878;17.686;2023-11-19T18:15:02;-4.60;99.90
23188;DHT22;11762;59.878;17.686;2023-11-19T18:17:29;-4.60;99.90
23188;DHT22;11762;59.878;17.686;2023-11-19T18:19:57;-4.60;99.90
23188;DHT22;11762;59.878;17.686;2023-11-19T18:22:24;-4.60;99.90
23188;DHT22;11762;59.878;17.686;2023-11-19T18:24:51;-4.50;99.90
23188;DHT22;11762;59.878;17.686;2023-11-19T18:27:18;-4.50;99.90
23188;DHT22;11762;59.878;17.686;2023-11-19T18:29:46;-4.50;99.90
23188;DHT22;11762;59.878;17.686;2023-11-19T18:32:13;-4.50;99.90
23188;DHT22;11762;59.878;17.686;2023-11-19T18:34:40;-4.50;99.90
23188;DHT22;11762;59.878;17.686;2023-11-19T18:37:09;-4.50;99.90
23188;DHT22;11762;59.878;17.686;2023-11-19T18:39:36;-4.50;99.90
23188;DHT22;11762;59.878;17.686;2023-11-19T18:42:06;-4.50;99.90
23188;DHT22;11762;59.878;17.686;2023-11-19T18:44:33;-4.50;99.90
23188;DHT22;11762;59.878;17.686;2023-11-19T18:47:00;-4.50;99.90
23188;DHT22;11762;59.878;17.686;2023-11-19T18:49:27;-4.50;99.90
23188;DHT22;11762;59.878;17.686;2023-11-19T18:51:54;-4.50;99.90
23188;DHT22;11762;59.878;17.686;2023-11-19T18:54:23;-4.50;99.90
23188;DHT22;11762;59.878;17.686;2023-11-19T18:56:50;-4.50;99.90
23188;DHT22;11762;59.878;17.686;2023-11-19T18:59:19;-4.50;99.90
23188;DHT22;11762;59.878;17.686;2023-11-19T19:01:46;-4.50;99.90
23188;DHT22;11762;59.878;17.686;2023-11-19T19:04:13;-4.50;99.90
23188;DHT22;11762;59.878;17.686;2023-11-19T19:06:40;-4.50;99.90
23188;DHT22;11762;59.878;17.686;2023-11-19T19:09:07;-4.50;99.90
23188;DHT22;11762;59.878;17.686;2023-11-19T19:11:36;-4.40;99.90
23188;DHT22;11762;59.878;17.686;2023-11-19T19:14:03;-4.40;99.90
23188;DHT22;11762;59.878;17.686;2023-11-19T19:16:30;-4.40;99.90
23188;DHT22;11762;59.878;17.686;2023-11-19T19:18:57;-4.40;99.90
23188;DHT22;11762;59.878;17.686;2023-11-19T19:21:24;-4.40;99.90
23188;DHT22;11762;59.878;17.686;2023-11-19T19:23:52;-4.40;99.90
23188;DHT22;11762;59.878;17.686;2023-11-19T19:26:18;-4.40;99.90
23188;DHT22;11762;59.878;17.686;2023-11-19T19:28:47;-4.40;99.90
23188;DHT22;11762;59.878;17.686;2023-11-19T19:31:15;-4.40;99.90
23188;DHT22;11762;59.878;17.686;2023-11-19T19:33:44;-4.40;99.90
23188;DHT22;11762;59.878;17.686;2023-11-19T19:36:14;-4.40;99.90
23188;DHT22;11762;59.878;17.686;2023-11-19T19:38:41;-4.40;99.90
23188;DHT22;11762;59.878;17.686;2023-11-19T19:41:08;-4.40;99.90
23188;DHT22;11762;59.878;17.686;2023-11-19T19:43:35;-4.40;99.90
23188;DHT22;11762;59.878;17.686;2023-11-19T19:46:05;-4.40;99.90
23188;DHT22;11762;59.878;17.686;2023-11-19T19:48:34;-4.30;99.90
23188;DHT22;11762;59.878;17.686;2023-11-19T19:51:01;-4.30;99.90
23188;DHT22;11762;59.878;17.686;2023-11-19T19:53:29;-4.30;99.90
23188;DHT22;11762;59.878;17.686;2023-11-19T19:55:56;-4.30;99.90
23188;DHT22;11762;59.878;17.686;2023-11-19T19:58:23;-4.30;99.90
23188;DHT22;11762;59.878;17.686;2023-11-19T20:00:50;-4.30;99.90
23188;DHT22;11762;59.878;17.686;2023-11-19T20:03:19;-4.40;99.90
23188;DHT22;11762;59.878;17.686;2023-11-19T20:05:46;-4.30;99.90
23188;DHT22;11762;59.878;17.686;2023-11-19T20:08:13;-4.30;99.90
23188;DHT22;11762;59.878;17.686;2023-11-19T20:10:40;-4.20;99.90
23188;DHT22;11762;59.878;17.686;2023-11-19T20:13:07;-4.30;99.90
23188;DHT22;11762;59.878;17.686;2023-11-19T20:15:36;-4.30;99.90
23188;DHT22;11762;59.878;17.686;2023-11-19T20:18:03;-4.20;99.90
23188;DHT22;11762;59.878;17.686;2023-11-19T20:20:32;-4.20;99.90
23188;DHT22;11762;59.878;17.686;2023-11-19T20:23:02;-4.20;99.90
23188;DHT22;11762;59.878;17.686;2023-11-19T20:25:29;-4.20;99.90
23188;DHT22;11762;59.878;17.686;2023-11-19T20:27:56;-4.20;99.90
23188;DHT22;11762;59.878;17.686;2023-11-19T20:30:23;-4.10;99.90
23188;DHT22;11762;59.878;17.686;2023-11-19T20:32:50;-4.10;99.90
23188;DHT22;11762;59.878;17.686;2023-11-19T20:35:17;-4.10;99.90
23188;DHT22;11762;59.878;17.686;2023-11-19T20:37:46;-4.00;99.90
23188;DHT22;11762;59.878;17.686;2023-11-19T20:40:12;-4.00;99.90
23188;DHT22;11762;59.878;17.686;2023-11-19T20:42:42;-4.00;99.90
23188;DHT22;11762;59.878;17.686;2023-11-19T20:45:10;-4.00;99.90
23188;DHT22;11762;59.878;17.686;2023-11-19T20:47:38;-4.00;99.90
23188;DHT22;11762;59.878;17.686;2023-11-19T20:50:06;-4.00;99.90
23188;DHT22;11762;59.878;17.686;2023-11-19T20:52:34;-4.00;99.90
23188;DHT22;11762;59.878;17.686;2023-11-19T20:55:03;-4.00;99.90
23188;DHT22;11762;59.878;17.686;2023-11-19T20:57:32;-4.00;99.90
23188;DHT22;11762;59.878;17.686;2023-11-19T20:59:59;-4.00;99.90
23188;DHT22;11762;59.878;17.686;2023-11-19T21:02:26;-3.90;99.90
23188;DHT22;11762;59.878;17.686;2023-11-19T21:04:53;-3.90;99.90
23188;DHT22;11762;59.878;17.686;2023-11-19T21:07:21;-3.90;99.90
23188;DHT22;11762;59.878;17.686;2023-11-19T21:09:47;-3.90;99.90
23188;DHT22;11762;59.878;17.686;2023-11-19T21:12:16;-3.90;99.90
23188;DHT22;11762;59.878;17.686;2023-11-19T21:14:43;-3.90;99.90
23188;DHT22;11762;59.878;17.686;2023-11-19T21:17:10;-3.90;99.90
23188;DHT22;11762;59.878;17.686;2023-11-19T21:19:37;-3.90;99.90
23188;DHT22;11762;59.878;17.686;2023-11-19T21:22:04;-3.90;99.90
23188;DHT22;11762;59.878;17.686;2023-11-19T21:24:31;-3.90;99.90
23188;DHT22;11762;59.878;17.686;2023-11-19T21:26:58;-3.80;99.90
23188;DHT22;11762;59.878;17.686;2023-11-19T21:29:26;-3.80;99.90
23188;DHT22;11762;59.878;17.686;2023-11-19T21:31:53;-3.80;99.90
23188;DHT22;11762;59.878;17.686;2023-11-19T21:34:20;-3.80;99.90
23188;DHT22;11762;59.878;17.686;2023-11-19T21:36:48;-3.80;99.90
23188;DHT22;11762;59.878;17.686;2023-11-19T21:39:15;-3.80;99.90
23188;DHT22;11762;59.878;17.686;2023-11-19T21:41:43;-3.80;99.90
23188;DHT22;11762;59.878;17.686;2023-11-19T21:44:10;-3.80;99.90
23188;DHT22;11762;59.878;17.686;2023-11-19T21:46:38;-3.80;99.90
23188;DHT22;11762;59.878;17.686;2023-11-19T21:49:05;-3.80;99.90
23188;DHT22;11762;59.878;17.686;2023-11-19T21:51:32;-3.80;99.90
23188;DHT22;11762;59.878;17.686;2023-11-19T21:54:05;-3.70;99.90
23188;DHT22;11762;59.878;17.686;2023-11-19T21:56:32;-3.80;99.90
23188;DHT22;11762;59.878;17.686;2023-11-19T21:58:59;-3.70;99.90
23188;DHT22;11762;59.878;17.686;2023-11-19T22:01:26;-3.70;99.90
23188;DHT22;11762;59.878;17.686;2023-11-19T22:03:55;-3.70;99.90
23188;DHT22;11762;59.878;17.686;2023-11-19T22:06:22;-3.70;99.90
23188;DHT22;11762;59.878;17.686;2023-11-19T22:08:49;-3.70;99.90
23188;DHT22;11762;59.878;17.686;2023-11-19T22:11:16;-3.70;99.90
23188;DHT22;11762;59.878;17.686;2023-11-19T22:13:43;-3.70;99.90
23188;DHT22;11762;59.878;17.686;2023-11-19T22:16:10;-3.70;99.90
23188;DHT22;11762;59.878;17.686;2023-11-19T22:18:37;-3.60;99.90
23188;DHT22;11762;59.878;17.686;2023-11-19T22:21:05;-3.60;99.90
23188;DHT22;11762;59.878;17.686;2023-11-19T22:23:32;-3.60;99.90
23188;DHT22;11762;59.878;17.686;2023-11-19T22:26:00;-3.60;99.90
23188;DHT22;11762;59.878;17.686;2023-11-19T22:28:28;-3.60;99.90
23188;DHT22;11762;59.878;17.686;2023-11-19T22:30:55;-3.50;99.90
23188;DHT22;11762;59.878;17.686;2023-11-19T22:33:22;-3.60;99.90
23188;DHT22;11762;59.878;17.686;2023-11-19T22:35:49;-3.50;99.90
23188;DHT22;11762;59.878;17.686;2023-11-19T22:38:17;-3.50;99.90
23188;DHT22;11762;59.878;17.686;2023-11-19T22:40:45;-3.50;99.90
23188;DHT22;11762;59.878;17.686;2023-11-19T22:43:13;-3.50;99.90
23188;DHT22;11762;59.878;17.686;2023-11-19T22:45:40;-3.50;99.90
23188;DHT22;11762;59.878;17.686;2023-11-19T22:48:07;-3.50;99.90
23188;DHT22;11762;59.878;17.686;2023-11-19T22:50:34;-3.50;99.90
23188;DHT22;11762;59.878;17.686;2023-11-19T22:53:01;-3.50;99.90
23188;DHT22;11762;59.878;17.686;2023-11-19T22:55:29;-3.50;99.90
23188;DHT22;11762;59.878;17.686;2023-11-19T22:57:57;-3.50;99.90
23188;DHT22;11762;59.878;17.686;2023-11-19T23:00:24;-3.50;99.90
23188;DHT22;11762;59.878;17.686;2023-11-19T23:02:55;-3.40;99.90
23188;DHT22;11762;59.878;17.686;2023-11-19T23:05:22;-3.40;99.90
23188;DHT22;11762;59.878;17.686;2023-11-19T23:07:49;-3.40;99.90
23188;DHT22;11762;59.878;17.686;2023-11-19T23:10:16;-3.40;99.90
23188;DHT22;11762;59.878;17.686;2023-11-19T23:12:45;-3.40;99.90
23188;DHT22;11762;59.878;17.686;2023-11-19T23:15:12;-3.40;99.90
23188;DHT22;11762;59.878;17.686;2023-11-19T23:17:41;-3.40;99.90
23188;DHT22;11762;59.878;17.686;2023-11-19T23:20:09;-3.40;99.90
23188;DHT22;11762;59.878;17.686;2023-11-19T23:22:38;-3.40;99.90
23188;DHT22;11762;59.878;17.686;2023-11-19T23:25:07;-3.40;99.90
23188;DHT22;11762;59.878;17.686;2023-11-19T23:27:35;-3.30;99.90
23188;DHT22;11762;59.878;17.686;2023-11-19T23:30:04;-3.30;99.90
23188;DHT22;11762;59.878;17.686;2023-11-19T23:32:31;-3.30;99.90
23188;DHT22;11762;59.878;17.686;2023-11-19T23:35:00;-3.30;99.90
23188;DHT22;11762;59.878;17.686;2023-11-19T23:37:27;-3.30;99.90
23188;DHT22;11762;59.878;17.686;2023-11-19T23:39:54;-3.30;99.90
23188;DHT22;11762;59.878;17.686;2023-11-19T23:42:21;-3.30;99.90
23188;DHT22;11762;59.878;17.686;2023-11-19T23:44:48;-3.30;99.90
23188;DHT22;11762;59.878;17.686;2023-11-19T23:47:16;-3.30;99.90
23188;DHT22;11762;59.878;17.686;2023-11-19T23:49:45;-3.30;99.90
23188;DHT22;11762;59.878;17.686;2023-11-19T23:52:12;-3.30;99.90
23188;DHT22;11762;59.878;17.686;2023-11-19T23:54:39;-3.30;99.90
23188;DHT22;11762;59.878;17.686;2023-11-19T23:57:06;-3.30;99.90
23188;DHT22;11762;59.878;17.686;2023-11-19T23:59:33;-3.20;99.90
